Time;durP1;ratioP1;P1;durP2;ratioP2;P2;SDS_P1;SDS_P2;PMS_P1;PMS_P2;Temp;Humidity;BMP_temperature;BMP_pressure;BME280_temperature;BME280_humidity;BME280_pressure;Samples;Min_cycle;Max_cycle;Signal;HPM_P1;HPM_P2
2023/06/04 00:01:55;;;;;;;12.85;7.90;;;;;;;12.02;99.25;100087.50;5131096;27;20034;-84
2023/06/04 00:04:39;;;;;;;13.35;8.25;;;;;;;11.95;100.00;100092.59;5130730;27;20035;-84
2023/06/04 00:07:23;;;;;;;14.63;8.50;;;;;;;12.07;100.00;100092.19;5130168;27;20042;-84
2023/06/04 00:10:07;;;;;;;14.35;7.50;;;;;;;11.94;100.00;100096.25;5130912;27;20449;-83
2023/06/04 00:12:51;;;;;;;15.40;7.53;;;;;;;12.03;100.00;100104.91;5130873;27;20056;-86
2023/06/04 00:15:35;;;;;;;15.38;7.25;;;;;;;11.99;100.00;100107.03;5116691;27;20632;-84
2023/06/04 00:18:19;;;;;;;13.05;7.88;;;;;;;11.75;100.00;100109.88;5115146;27;20495;-84
2023/06/04 00:21:04;;;;;;;17.38;8.55;;;;;;;11.86;100.00;100093.66;5129333;27;20121;-85
2023/06/04 00:23:47;;;;;;;15.93;8.45;;;;;;;11.65;100.00;100100.38;5131106;27;20100;-84
2023/06/04 00:26:31;;;;;;;20.95;9.05;;;;;;;11.77;100.00;100100.78;5116012;27;20401;-84
2023/06/04 00:29:15;;;;;;;16.75;8.43;;;;;;;11.81;100.00;100096.84;5133736;27;20042;-83
2023/06/04 00:31:59;;;;;;;19.60;8.25;;;;;;;11.75;100.00;100094.09;5128406;27;20043;-85
2023/06/04 00:34:50;;;;;;;17.83;8.18;;;;;;;11.69;100.00;100085.91;5130629;27;20084;-83
2023/06/04 00:37:34;;;;;;;21.02;8.80;;;;;;;11.68;100.00;100097.41;5133786;27;20072;-83
2023/06/04 00:40:19;;;;;;;17.48;8.88;;;;;;;11.55;100.00;100095.34;5122297;27;20041;-82
2023/06/04 00:43:03;;;;;;;18.48;8.25;;;;;;;11.64;100.00;100087.44;5134184;27;20120;-83
2023/06/04 00:45:47;;;;;;;14.63;7.07;;;;;;;11.60;100.00;100094.03;5132393;27;20130;-84
2023/06/04 00:48:32;;;;;;;18.30;8.20;;;;;;;11.41;100.00;100080.34;5132863;27;20118;-84
2023/06/04 00:51:17;;;;;;;18.33;8.23;;;;;;;11.58;100.00;100089.75;5133605;27;20061;-81
2023/06/04 00:54:08;;;;;;;15.70;8.13;;;;;;;11.65;100.00;100083.81;5133246;27;20107;-82
2023/06/04 00:56:52;;;;;;;13.05;7.57;;;;;;;11.60;100.00;100084.31;5133587;27;20054;-82
2023/06/04 00:59:41;;;;;;;16.98;7.55;;;;;;;11.60;100.00;100078.25;5130151;27;20511;-83
2023/06/04 01:02:27;;;;;;;16.77;7.88;;;;;;;11.55;100.00;100081.41;5130995;27;20046;-84
2023/06/04 01:05:12;;;;;;;15.98;7.57;;;;;;;11.63;100.00;100091.84;5131475;27;20106;-85
2023/06/04 01:07:57;;;;;;;14.30;7.53;;;;;;;11.57;100.00;100090.75;5116482;27;20128;-85
2023/06/04 01:10:55;;;;;;;15.32;7.78;;;;;;;11.49;100.00;100097.84;5131414;27;20057;-86
2023/06/04 01:13:40;;;;;;;15.80;7.35;;;;;;;11.39;100.00;100098.09;5133264;27;20042;-83
2023/06/04 01:16:28;;;;;;;14.25;7.07;;;;;;;11.35;100.00;100088.91;5133318;27;20042;-84
2023/06/04 01:19:54;;;;;;;15.77;7.38;;;;;;;11.31;100.00;100095.50;5109918;27;20045;-84
2023/06/04 01:22:41;;;;;;;22.20;7.93;;;;;;;11.29;100.00;100098.31;5120095;27;20499;-84
2023/06/04 01:25:33;;;;;;;11.30;7.15;;;;;;;11.13;100.00;100086.06;5132513;27;20052;-85
2023/06/04 01:28:20;;;;;;;15.63;7.22;;;;;;;11.13;100.00;100084.28;5130887;27;20054;-84
2023/06/04 01:31:07;;;;;;;10.85;6.70;;;;;;;11.15;100.00;100102.50;5129315;27;20045;-84
2023/06/04 01:33:54;;;;;;;15.25;6.50;;;;;;;11.21;100.00;100096.56;5131656;27;20089;-83
2023/06/04 01:36:38;;;;;;;16.33;7.07;;;;;;;11.06;100.00;100085.94;5132690;27;20046;-84
2023/06/04 01:39:22;;;;;;;13.52;7.07;;;;;;;11.08;100.00;100083.16;5132438;28;20115;-83
2023/06/04 01:42:06;;;;;;;16.77;6.40;;;;;;;11.20;100.00;100089.66;5132537;28;20168;-83
2023/06/04 01:44:50;;;;;;;17.83;7.88;;;;;;;11.21;100.00;100080.78;5130016;28;20140;-82
2023/06/04 01:47:34;;;;;;;12.73;6.95;;;;;;;11.48;100.00;100099.69;5131384;28;20046;-81
2023/06/04 01:50:19;;;;;;;17.70;6.90;;;;;;;11.69;100.00;100096.44;5132239;28;20046;-83
2023/06/04 01:53:03;;;;;;;16.88;6.30;;;;;;;11.82;100.00;100087.13;5131037;28;20046;-83
2023/06/04 01:55:49;;;;;;;16.27;6.85;;;;;;;12.05;100.00;100095.03;5132407;28;20050;-82
2023/06/04 01:58:33;;;;;;;16.33;6.50;;;;;;;12.15;100.00;100097.41;5130107;28;20509;-82
2023/06/04 02:01:19;;;;;;;16.58;6.47;;;;;;;12.13;100.00;100097.56;5132680;28;20087;-81
2023/06/04 02:04:03;;;;;;;20.35;6.97;;;;;;;12.12;100.00;100087.25;5130287;28;20136;-81
2023/06/04 02:06:48;;;;;;;16.48;6.32;;;;;;;12.32;100.00;100092.78;5131281;28;20045;-82
2023/06/04 02:09:32;;;;;;;15.60;6.68;;;;;;;12.57;100.00;100100.44;5132452;27;20047;-81
2023/06/04 02:12:16;;;;;;;12.27;6.30;;;;;;;12.66;100.00;100091.44;5115750;28;20092;-81
2023/06/04 02:15:00;;;;;;;14.85;7.55;;;;;;;12.67;100.00;100100.97;5131489;28;20038;-81
2023/06/04 02:17:45;;;;;;;18.23;6.43;;;;;;;12.42;100.00;100093.34;5130875;28;20091;-82
2023/06/04 02:20:29;;;;;;;12.18;6.07;;;;;;;12.53;100.00;100089.47;5132085;27;20564;-81
2023/06/04 02:23:16;;;;;;;17.90;7.97;;;;;;;12.54;100.00;100090.25;5134462;27;20542;-81
2023/06/04 02:26:00;;;;;;;14.43;6.70;;;;;;;12.18;100.00;100097.03;5129369;27;20078;-81
2023/06/04 02:28:44;;;;;;;18.92;6.72;;;;;;;11.98;100.00;100088.78;5135500;27;20100;-81
2023/06/04 02:31:27;;;;;;;13.60;6.90;;;;;;;12.03;100.00;100086.50;5120342;27;20039;-81
2023/06/04 02:34:12;;;;;;;15.52;7.45;;;;;;;11.90;100.00;100094.13;5135821;27;20087;-81
2023/06/04 02:36:56;;;;;;;15.80;7.40;;;;;;;11.69;100.00;100100.84;5135559;27;20053;-81
2023/06/04 02:39:40;;;;;;;16.63;7.60;;;;;;;11.53;100.00;100099.97;5135964;27;20095;-81
2023/06/04 02:42:24;;;;;;;19.63;7.43;;;;;;;11.48;100.00;100097.06;5118419;27;20439;-82
2023/06/04 02:45:10;;;;;;;15.23;7.43;;;;;;;11.38;100.00;100092.03;5135453;27;20091;-80
2023/06/04 02:47:54;;;;;;;21.15;8.05;;;;;;;11.39;100.00;100108.59;5135128;27;20053;-80
2023/06/04 02:50:39;;;;;;;16.50;7.30;;;;;;;11.28;100.00;100101.94;5134855;27;20081;-80
2023/06/04 02:53:23;;;;;;;16.63;7.45;;;;;;;11.28;100.00;100112.44;5119245;27;20050;-79
2023/06/04 02:56:07;;;;;;;17.95;8.38;;;;;;;11.38;100.00;100099.06;5134626;27;20050;-79
2023/06/04 02:58:55;;;;;;;12.43;6.65;;;;;;;11.40;100.00;100105.00;5135377;27;20549;-82
2023/06/04 03:01:40;;;;;;;16.02;7.05;;;;;;;11.39;100.00;100109.44;5133179;27;20396;-82
2023/06/04 03:04:24;;;;;;;20.83;8.13;;;;;;;11.36;100.00;100108.94;5131600;27;20043;-81
2023/06/04 03:07:11;;;;;;;22.90;8.60;;;;;;;11.41;100.00;100111.91;5130525;27;20503;-82
2023/06/04 03:09:55;;;;;;;19.02;8.45;;;;;;;11.49;100.00;100108.38;5135308;27;20042;-82
2023/06/04 03:12:40;;;;;;;16.98;8.40;;;;;;;11.57;100.00;100100.44;5133840;27;20042;-81
2023/06/04 03:15:24;;;;;;;19.92;8.90;;;;;;;11.67;100.00;100103.66;5134973;27;20083;-81
2023/06/04 03:18:08;;;;;;;19.67;7.35;;;;;;;11.89;100.00;100105.66;5134975;27;20080;-81
2023/06/04 03:20:52;;;;;;;18.05;7.07;;;;;;;12.05;100.00;100097.66;5134897;27;20037;-80
2023/06/04 03:23:37;;;;;;;18.33;8.13;;;;;;;11.80;100.00;100100.47;5117464;27;20038;-82
2023/06/04 03:26:21;;;;;;;25.08;8.73;;;;;;;11.64;100.00;100096.13;5134254;27;20072;-80
2023/06/04 03:29:05;;;;;;;14.35;6.65;;;;;;;11.98;100.00;100092.25;5134403;27;20050;-81
2023/06/04 03:31:49;;;;;;;17.40;7.15;;;;;;;12.06;100.00;100096.66;5124953;27;20129;-82
2023/06/04 03:34:33;;;;;;;17.73;8.25;;;;;;;11.84;100.00;100095.66;5134382;27;20091;-81
2023/06/04 03:37:17;;;;;;;16.63;7.75;;;;;;;12.02;100.00;100091.91;5131164;27;20077;-81
2023/06/04 03:40:03;;;;;;;13.77;7.47;;;;;;;12.12;100.00;100098.56;5131511;27;20132;-81
2023/06/04 03:42:47;;;;;;;14.48;6.60;;;;;;;11.97;100.00;100100.31;5134223;27;20089;-79
2023/06/04 03:45:31;;;;;;;20.00;8.15;;;;;;;11.91;100.00;100090.50;5133872;27;20511;-82
2023/06/04 03:48:15;;;;;;;18.02;7.97;;;;;;;12.00;100.00;100086.81;5133450;27;20038;-82
2023/06/04 03:50:59;;;;;;;18.42;6.85;;;;;;;11.76;100.00;100078.09;5118093;27;20046;-81
2023/06/04 03:53:43;;;;;;;19.02;7.60;;;;;;;12.06;100.00;100070.34;5133309;27;20050;-81
2023/06/04 03:56:28;;;;;;;18.42;7.45;;;;;;;11.58;100.00;100096.81;5132962;27;20100;-81
2023/06/04 03:59:12;;;;;;;15.98;7.82;;;;;;;11.91;100.00;100087.88;5133771;27;20041;-81
2023/06/04 04:01:56;;;;;;;24.73;7.78;;;;;;;12.13;100.00;100104.66;5130930;27;20213;-81
2023/06/04 04:04:40;;;;;;;17.63;8.15;;;;;;;11.99;100.00;100093.88;5133258;27;20080;-81
2023/06/04 04:07:24;;;;;;;16.00;8.35;;;;;;;12.16;100.00;100087.69;5133899;27;20091;-81
2023/06/04 04:10:08;;;;;;;20.02;8.70;;;;;;;12.05;100.00;100091.56;5133315;27;20042;-81
2023/06/04 04:12:54;;;;;;;16.75;8.10;;;;;;;12.16;100.00;100092.94;5133472;27;20434;-82
2023/06/04 04:15:38;;;;;;;18.02;7.00;;;;;;;12.02;100.00;100098.00;5132999;27;20046;-81
2023/06/04 04:18:22;;;;;;;17.52;7.68;;;;;;;12.09;100.00;100095.50;5130511;27;20037;-81
2023/06/04 04:21:06;;;;;;;13.43;8.02;;;;;;;12.20;100.00;100099.50;5132854;27;20038;-81
2023/06/04 04:23:51;;;;;;;17.90;9.30;;;;;;;12.19;100.00;100096.03;5133168;27;20062;-81
2023/06/04 04:26:35;;;;;;;12.80;9.43;;;;;;;12.56;100.00;100096.16;5133362;27;20086;-82
2023/06/04 04:29:22;;;;;;;17.88;9.70;;;;;;;12.54;100.00;100079.72;5133459;27;20447;-82
2023/06/04 04:32:10;;;;;;;19.95;9.73;;;;;;;12.38;100.00;100107.06;5125649;27;20104;-83
2023/06/04 04:34:55;;;;;;;17.90;9.60;;;;;;;12.70;100.00;100089.28;5133430;27;20122;-82
2023/06/04 04:37:39;;;;;;;16.75;9.48;;;;;;;12.80;100.00;100102.97;5129144;27;20038;-82
2023/06/04 04:40:23;;;;;;;16.48;8.50;;;;;;;12.34;100.00;100092.63;5126927;27;20038;-82
2023/06/04 04:43:07;;;;;;;13.80;7.43;;;;;;;12.33;100.00;100101.53;5132964;27;20499;-82
2023/06/04 04:45:51;;;;;;;19.50;7.93;;;;;;;12.53;100.00;100096.53;5132855;27;20034;-83
2023/06/04 04:48:35;;;;;;;13.60;6.95;;;;;;;12.74;100.00;100110.78;5132896;27;20092;-83
2023/06/04 04:51:19;;;;;;;19.88;8.10;;;;;;;12.22;100.00;100108.84;5132697;27;20046;-81
2023/06/04 04:54:03;;;;;;;19.10;7.88;;;;;;;12.61;100.00;100100.88;5133784;27;20453;-82
2023/06/04 04:56:47;;;;;;;13.82;7.22;;;;;;;12.48;100.00;100109.44;5125659;27;20054;-81
2023/06/04 04:59:31;;;;;;;12.73;6.63;;;;;;;12.37;100.00;100100.16;5132578;27;20431;-80
2023/06/04 05:02:15;;;;;;;15.93;6.95;;;;;;;12.26;100.00;100119.84;5132899;27;20076;-81
2023/06/04 05:05:00;;;;;;;11.63;6.43;;;;;;;12.43;100.00;100116.06;5133319;27;20050;-81
2023/06/04 05:07:44;;;;;;;14.63;7.10;;;;;;;12.79;100.00;100108.44;5132745;27;20088;-82
2023/06/04 05:10:28;;;;;;;15.90;8.48;;;;;;;11.94;100.00;100116.44;5132460;27;20038;-82
2023/06/04 05:13:12;;;;;;;12.63;7.53;;;;;;;12.65;100.00;100117.97;5130940;27;20123;-81
2023/06/04 05:15:56;;;;;;;14.38;6.38;;;;;;;12.06;100.00;100111.63;5129756;27;20506;-80
2023/06/04 05:18:41;;;;;;;16.40;7.22;;;;;;;12.30;100.00;100107.94;5130348;27;20106;-82
2023/06/04 05:21:26;;;;;;;12.63;5.78;;;;;;;12.44;100.00;100122.13;5112223;27;20061;-82
2023/06/04 05:24:10;;;;;;;14.40;5.55;;;;;;;12.60;100.00;100121.16;5129562;27;20062;-82
2023/06/04 05:26:56;;;;;;;12.35;5.78;;;;;;;12.93;100.00;100110.22;5133009;27;20648;-79
2023/06/04 05:29:40;;;;;;;10.43;5.63;;;;;;;13.26;100.00;100115.09;5133337;27;20450;-80
2023/06/04 05:32:28;;;;;;;12.60;6.15;;;;;;;13.04;100.00;100118.69;5130826;27;20060;-80
2023/06/04 05:35:12;;;;;;;15.25;6.00;;;;;;;13.12;100.00;100123.84;5116849;27;20439;-80
2023/06/04 05:37:56;;;;;;;10.20;6.18;;;;;;;12.90;100.00;100113.22;5132669;27;20077;-79
2023/06/04 05:40:41;;;;;;;14.10;6.07;;;;;;;13.27;100.00;100119.38;5132996;28;20064;-80
2023/06/04 05:43:25;;;;;;;10.65;6.20;;;;;;;13.27;100.00;100121.19;5132944;28;20049;-79
2023/06/04 05:46:10;;;;;;;11.88;6.70;;;;;;;13.07;100.00;100113.03;5131810;28;20043;-79
2023/06/04 05:48:55;;;;;;;12.98;7.38;;;;;;;13.26;100.00;100119.53;5132192;28;20066;-79
2023/06/04 05:51:39;;;;;;;11.38;6.80;;;;;;;13.09;100.00;100119.78;5131648;28;20396;-79
2023/06/04 05:54:23;;;;;;;14.13;7.13;;;;;;;13.19;100.00;100119.47;5131979;28;20459;-80
2023/06/04 05:57:07;;;;;;;10.30;6.00;;;;;;;13.65;100.00;100122.81;5134620;27;20065;-81
2023/06/04 05:59:51;;;;;;;8.13;5.95;;;;;;;13.00;100.00;100110.31;5136109;27;20046;-81
2023/06/04 06:02:35;;;;;;;12.82;6.82;;;;;;;12.94;100.00;100126.88;5136504;27;20053;-81
2023/06/04 06:05:20;;;;;;;12.68;6.65;;;;;;;13.85;100.00;100123.84;5135703;27;20060;-81
2023/06/04 06:08:04;;;;;;;12.38;5.85;;;;;;;13.43;100.00;100110.44;5120760;27;20042;-81
2023/06/04 06:10:49;;;;;;;10.07;5.80;;;;;;;13.92;100.00;100137.09;5135576;27;20499;-80
2023/06/04 06:13:33;;;;;;;8.52;5.75;;;;;;;13.79;100.00;100135.16;5136355;27;20099;-81
2023/06/04 06:16:18;;;;;;;9.88;5.70;;;;;;;13.60;100.00;100131.31;5135731;27;20812;-82
2023/06/04 06:19:02;;;;;;;9.68;6.45;;;;;;;13.97;100.00;100132.06;5121058;27;20065;-82
2023/06/04 06:21:46;;;;;;;8.32;5.93;;;;;;;13.94;100.00;100136.88;5135170;27;21754;-82
2023/06/04 06:24:30;;;;;;;9.82;6.28;;;;;;;13.49;100.00;100135.25;5135596;27;20088;-82
2023/06/04 06:27:15;;;;;;;12.60;7.22;;;;;;;13.62;100.00;100131.94;5129613;27;20049;-82
2023/06/04 06:30:00;;;;;;;16.63;7.35;;;;;;;13.61;100.00;100132.94;5135392;27;20054;-82
2023/06/04 06:32:45;;;;;;;17.52;7.50;;;;;;;13.74;100.00;100132.25;5131893;27;20050;-82
2023/06/04 06:35:29;;;;;;;11.00;6.47;;;;;;;13.93;100.00;100135.25;5135692;27;20084;-79
2023/06/04 06:38:13;;;;;;;11.85;6.72;;;;;;;14.34;100.00;100126.66;5135277;27;20058;-82
2023/06/04 06:40:58;;;;;;;13.80;7.10;;;;;;;14.40;100.00;100128.53;5118743;27;20137;-80
2023/06/04 06:43:42;;;;;;;12.15;6.70;;;;;;;14.47;100.00;100125.94;5120786;27;20126;-80
2023/06/04 06:46:26;;;;;;;13.35;6.75;;;;;;;15.09;100.00;100130.56;5136139;27;20054;-82
2023/06/04 06:49:10;;;;;;;12.38;6.18;;;;;;;14.88;100.00;100132.28;5135124;27;20073;-82
2023/06/04 06:51:54;;;;;;;13.15;5.70;;;;;;;14.90;100.00;100124.97;5129651;27;20108;-85
2023/06/04 06:54:38;;;;;;;9.80;6.35;;;;;;;14.91;100.00;100126.59;5119473;27;20050;-83
2023/06/04 06:57:22;;;;;;;9.98;6.53;;;;;;;14.86;100.00;100126.38;5134128;27;20117;-84
2023/06/04 07:00:07;;;;;;;10.32;6.10;;;;;;;14.63;100.00;100135.38;5128279;27;20116;-83
2023/06/04 07:02:51;;;;;;;13.00;7.07;;;;;;;13.63;100.00;100130.13;5135273;27;20073;-85
2023/06/04 07:05:35;;;;;;;12.65;6.50;;;;;;;14.38;100.00;100138.47;5119373;27;20076;-83
2023/06/04 07:08:21;;;;;;;13.48;6.85;;;;;;;14.97;100.00;100123.19;5119441;27;20054;-85
2023/06/04 07:11:05;;;;;;;13.68;7.47;;;;;;;14.76;100.00;100139.16;5137170;27;20037;-83
2023/06/04 07:13:49;;;;;;;12.35;8.10;;;;;;;14.68;100.00;100127.69;5135315;27;20450;-83
2023/06/04 07:16:33;;;;;;;12.77;8.25;;;;;;;14.34;100.00;100137.22;5135682;27;20062;-87
2023/06/04 07:19:17;;;;;;;14.18;7.75;;;;;;;14.66;100.00;100137.63;5128985;27;20095;-85
2023/06/04 07:22:01;;;;;;;10.25;6.90;;;;;;;15.40;100.00;100129.25;5118466;27;20504;-87
2023/06/04 07:24:45;;;;;;;10.60;7.75;;;;;;;14.94;100.00;100131.53;5131511;27;20131;-86
2023/06/04 07:27:29;;;;;;;12.63;7.47;;;;;;;14.19;100.00;100136.50;5133524;27;20038;-85
2023/06/04 07:30:14;;;;;;;12.05;7.07;;;;;;;14.76;100.00;100128.59;5130906;27;20096;-86
2023/06/04 07:33:01;;;;;;;13.32;7.63;;;;;;;14.83;100.00;100134.72;5133145;27;20493;-83
2023/06/04 07:35:45;;;;;;;12.10;6.72;;;;;;;14.41;100.00;100139.91;5135107;27;20093;-85
2023/06/04 07:38:29;;;;;;;13.25;6.78;;;;;;;14.70;100.00;100117.72;5133337;27;20392;-85
2023/06/04 07:41:13;;;;;;;11.70;6.28;;;;;;;14.71;100.00;100137.88;5126124;27;20047;-83
2023/06/04 07:43:57;;;;;;;11.32;6.65;;;;;;;14.34;100.00;100131.13;5132219;27;20091;-82
2023/06/04 07:46:41;;;;;;;12.05;6.40;;;;;;;14.90;100.00;100114.41;5123011;27;20504;-83
2023/06/04 07:49:25;;;;;;;9.50;6.03;;;;;;;14.28;100.00;100122.13;5130949;27;20038;-84
2023/06/04 07:52:09;;;;;;;11.35;6.25;;;;;;;15.14;100.00;100126.31;5131172;27;20072;-85
2023/06/04 07:54:53;;;;;;;9.73;5.90;;;;;;;14.65;100.00;100128.06;5133479;27;20050;-84
2023/06/04 07:57:37;;;;;;;13.77;7.15;;;;;;;14.84;100.00;100109.91;5133285;27;20054;-87
2023/06/04 08:00:21;;;;;;;14.20;7.35;;;;;;;14.80;100.00;100137.75;5129679;27;20084;-85
2023/06/04 08:03:05;;;;;;;10.38;7.00;;;;;;;14.56;100.00;100139.81;5133782;27;20081;-85
2023/06/04 08:05:49;;;;;;;8.90;5.90;;;;;;;14.74;100.00;100126.13;5119080;27;20054;-87
2023/06/04 08:08:33;;;;;;;11.20;6.72;;;;;;;15.07;100.00;100129.94;5132815;27;20047;-86
2023/06/04 08:11:18;;;;;;;10.32;6.80;;;;;;;14.98;100.00;100137.22;5134826;27;20037;-88
2023/06/04 08:14:02;;;;;;;14.18;6.93;;;;;;;15.38;100.00;100136.56;5139771;27;20062;-88
2023/06/04 08:16:46;;;;;;;8.52;6.53;;;;;;;15.58;100.00;100128.66;5136016;27;20064;-88
2023/06/04 08:19:30;;;;;;;13.77;7.30;;;;;;;15.55;100.00;100135.19;5129561;27;20092;-85
2023/06/04 08:22:14;;;;;;;9.88;6.82;;;;;;;15.85;100.00;100137.47;5122180;27;20041;-85
2023/06/04 08:24:58;;;;;;;14.55;6.88;;;;;;;16.06;100.00;100119.78;5126413;27;20057;-84
2023/06/04 08:27:42;;;;;;;14.48;6.88;;;;;;;16.32;100.00;100131.41;5131124;27;20042;-85
2023/06/04 08:30:27;;;;;;;13.43;6.90;;;;;;;15.66;100.00;100127.66;5131419;27;20399;-87
2023/06/04 08:33:11;;;;;;;9.50;6.20;;;;;;;15.62;100.00;100139.66;5131587;27;20057;-84
2023/06/04 08:35:56;;;;;;;12.43;6.57;;;;;;;15.87;99.90;100128.50;5133316;27;20136;-88
2023/06/04 08:38:40;;;;;;;9.63;6.35;;;;;;;16.13;100.00;100133.03;5131345;27;20046;-84
2023/06/04 08:41:27;;;;;;;10.73;5.90;;;;;;;16.72;98.15;100133.16;5120705;27;20034;-83
2023/06/04 08:44:12;;;;;;;11.70;6.40;;;;;;;17.07;96.06;100124.91;5141932;27;20043;-82
2023/06/04 08:47:02;;;;;;;11.02;7.00;;;;;;;16.94;95.16;100131.06;5134765;27;20082;-85
2023/06/04 08:49:53;;;;;;;9.52;6.03;;;;;;;18.27;92.96;100129.66;5135015;27;20100;-85
2023/06/04 08:52:39;;;;;;;9.70;6.20;;;;;;;17.68;93.35;100141.31;5134472;27;20079;-84
2023/06/04 08:55:23;;;;;;;11.23;6.50;;;;;;;17.23;94.31;100136.06;5114357;27;20070;-85
2023/06/04 08:58:10;;;;;;;12.48;6.22;;;;;;;17.83;91.65;100141.00;5123518;27;20511;-85
2023/06/04 09:00:54;;;;;;;10.77;5.50;;;;;;;18.13;89.68;100140.41;5131879;27;20168;-86
2023/06/04 09:03:38;;;;;;;6.93;5.57;;;;;;;18.46;88.59;100135.81;5129234;27;20496;-84
2023/06/04 09:06:26;;;;;;;9.70;7.07;;;;;;;17.85;90.70;100133.63;5129895;27;20495;-83
2023/06/04 09:09:12;;;;;;;10.43;5.68;;;;;;;17.20;93.31;100137.28;5114911;27;20068;-83
2023/06/04 09:11:57;;;;;;;11.00;5.88;;;;;;;16.80;95.48;100134.75;5116368;27;20083;-83
2023/06/04 09:14:41;;;;;;;10.05;6.35;;;;;;;15.87;98.99;100133.78;5133256;27;20064;-81
2023/06/04 09:17:25;;;;;;;9.55;6.68;;;;;;;15.96;98.81;100129.97;5132832;27;20042;-81
2023/06/04 09:20:19;;;;;;;11.40;6.68;;;;;;;16.05;99.15;100141.19;5135311;27;20061;-84
2023/06/04 09:23:13;;;;;;;9.23;6.03;;;;;;;16.25;100.00;100146.47;5116636;27;20571;-85
2023/06/04 09:26:07;;;;;;;8.43;5.68;;;;;;;16.95;97.91;100137.97;5127582;27;20399;-83
2023/06/04 09:28:55;;;;;;;12.93;6.35;;;;;;;16.62;98.18;100130.94;5114498;27;20544;-85
2023/06/04 09:31:39;;;;;;;8.57;6.63;;;;;;;16.16;99.33;100132.63;5132912;27;20038;-84
2023/06/04 09:34:28;;;;;;;11.73;6.68;;;;;;;16.94;96.94;100136.34;5141950;27;20079;-85
2023/06/04 09:37:19;;;;;;;9.15;7.18;;;;;;;16.67;96.26;100123.16;5122290;27;20053;-84
2023/06/04 09:40:05;;;;;;;9.27;6.90;;;;;;;16.47;98.70;100127.69;5121936;28;20400;-84
2023/06/04 09:42:57;;;;;;;8.93;6.63;;;;;;;16.34;100.00;100124.06;5137693;28;20450;-85
2023/06/04 09:45:42;;;;;;;14.48;7.70;;;;;;;16.42;99.30;100136.28;5142110;28;20037;-83
2023/06/04 09:48:26;;;;;;;12.05;6.40;;;;;;;16.34;99.50;100139.94;5137278;28;20103;-86
2023/06/04 09:51:21;;;;;;;9.60;6.25;;;;;;;17.06;98.50;100131.25;5125849;28;20042;-85
2023/06/04 09:54:05;;;;;;;14.00;7.22;;;;;;;16.91;97.91;100126.16;5118423;28;20050;-87
2023/06/04 09:56:49;;;;;;;34.53;15.68;;;;;;;17.48;96.53;100135.31;5129016;28;20080;-85
2023/06/04 09:59:37;;;;;;;;;;;;;;;17.36;96.53;100135.19;5135436;28;20115;-87
2023/06/04 10:02:21;;;;;;;9.13;7.25;;;;;;;17.02;98.44;100134.50;5127167;28;19949;-86
2023/06/04 10:05:08;;;;;;;10.85;6.70;;;;;;;18.37;95.46;100135.28;5117875;28;20042;-83
2023/06/04 10:07:57;;;;;;;8.57;6.50;;;;;;;18.34;93.57;100132.25;5127680;28;20442;-85
2023/06/04 10:10:41;;;;;;;14.90;6.82;;;;;;;18.08;93.51;100126.97;5131585;28;20096;-83
2023/06/04 10:13:29;;;;;;;10.00;6.75;;;;;;;18.23;91.95;100133.78;5130837;28;20049;-84
2023/06/04 10:16:13;;;;;;;10.55;7.00;;;;;;;18.75;92.32;100136.13;5129804;28;20511;-85
2023/06/04 10:18:59;;;;;;;8.63;6.10;;;;;;;19.38;90.55;100134.16;5131634;28;20053;-84
2023/06/04 10:21:43;;;;;;;10.10;6.57;;;;;;;17.28;93.11;100133.59;5119317;28;20039;-87
2023/06/04 10:24:28;;;;;;;11.00;6.75;;;;;;;18.39;92.15;100138.53;5123513;28;20042;-89
2023/06/04 10:27:13;;;;;;;15.45;6.85;;;;;;;18.78;90.43;100126.91;5130626;28;20072;-87
2023/06/04 10:29:58;;;;;;;11.63;6.82;;;;;;;18.92;89.20;100128.38;5118608;28;20102;-85
2023/06/04 10:32:46;;;;;;;12.05;7.78;;;;;;;19.11;88.94;100139.81;5133925;28;20046;-87
2023/06/04 10:35:34;;;;;;;11.13;7.07;;;;;;;19.16;88.59;100146.31;5137225;28;20050;-87
2023/06/04 10:38:21;;;;;;;9.90;6.28;;;;;;;19.11;88.40;100144.34;5126687;28;20568;-84
2023/06/04 10:41:18;;;;;;;7.80;6.43;;;;;;;18.19;88.99;100143.22;5116027;27;20073;-84
2023/06/04 10:44:03;;;;;;;14.85;8.32;;;;;;;17.93;90.33;100145.03;5137198;27;20042;-81
2023/06/04 10:46:47;;;;;;;10.82;7.00;;;;;;;18.68;90.54;100140.72;5132598;27;20561;-87
2023/06/04 10:49:31;;;;;;;11.35;6.30;;;;;;;18.38;89.41;100139.56;5138152;27;20091;-85
2023/06/04 10:52:15;;;;;;;8.55;6.53;;;;;;;18.12;90.16;100146.75;5133237;27;20389;-86
2023/06/04 10:55:04;;;;;;;9.70;6.80;;;;;;;18.50;89.82;100144.19;5136082;27;20080;-89
2023/06/04 10:58:01;;;;;;;11.95;7.35;;;;;;;19.24;89.22;100143.38;5136738;27;20070;-85
2023/06/04 11:00:48;;;;;;;12.98;7.47;;;;;;;19.28;88.27;100144.53;5137698;27;20504;-85
2023/06/04 11:03:37;;;;;;;14.95;8.40;;;;;;;18.21;89.98;100141.16;5134645;27;20122;-87
2023/06/04 11:06:22;;;;;;;15.90;10.57;;;;;;;18.03;91.87;100158.66;5133283;27;20480;-87
2023/06/04 11:09:07;;;;;;;13.18;9.05;;;;;;;18.03;90.44;100140.06;5135684;27;20026;-86
2023/06/04 11:12:00;;;;;;;10.88;7.85;;;;;;;18.00;89.06;100164.38;5132503;27;20392;-88
2023/06/04 11:14:55;;;;;;;13.57;8.95;;;;;;;18.67;88.83;100142.56;5134125;27;20061;-85
2023/06/04 11:17:53;;;;;;;14.20;8.57;;;;;;;18.59;88.21;100147.38;5120709;27;20507;-87
2023/06/04 11:20:37;;;;;;;10.90;7.53;;;;;;;18.37;88.55;100156.56;5134530;27;20080;-86
2023/06/04 11:23:21;;;;;;;8.05;6.28;;;;;;;18.10;89.89;100156.78;5135070;27;20034;-86
2023/06/04 11:26:05;;;;;;;13.13;7.28;;;;;;;18.94;89.68;100152.06;5136609;27;20049;-89
2023/06/04 11:28:50;;;;;;;12.23;7.13;;;;;;;19.80;89.15;100161.84;5134896;27;20050;-87
2023/06/04 11:31:47;;;;;;;8.63;7.05;;;;;;;19.83;85.65;100159.53;5134097;27;20042;-88
2023/06/04 11:34:32;;;;;;;8.70;7.00;;;;;;;19.56;87.00;100151.13;5135227;27;20416;-86
2023/06/04 11:37:16;;;;;;;11.95;8.02;;;;;;;19.10;85.78;100159.50;5136026;27;20041;-87
2023/06/04 11:40:00;;;;;;;9.77;7.10;;;;;;;18.84;87.43;100160.56;5129031;27;20054;-86
2023/06/04 11:42:48;;;;;;;7.53;6.72;;;;;;;18.31;86.89;100143.31;5131416;27;20092;-82
2023/06/04 11:45:32;;;;;;;17.70;7.15;;;;;;;17.99;88.24;100144.16;5132000;27;20034;-86
2023/06/04 11:48:17;;;;;;;8.48;6.78;;;;;;;18.49;86.63;100142.56;5132255;27;20042;-87
2023/06/04 11:51:08;;;;;;;9.30;6.57;;;;;;;18.59;86.27;100148.16;5134596;27;20034;-87
2023/06/04 11:53:53;;;;;;;8.23;6.35;;;;;;;19.03;85.64;100153.44;5117664;27;20091;-86
2023/06/04 11:56:37;;;;;;;11.05;7.13;;;;;;;18.75;84.42;100157.41;5123810;27;20055;-84
2023/06/04 11:59:21;;;;;;;8.98;6.15;;;;;;;19.83;84.57;100150.72;5132608;27;20057;-85
2023/06/04 12:02:07;;;;;;;12.23;6.97;;;;;;;19.66;83.18;100155.91;5133171;27;20037;-85
2023/06/04 12:04:51;;;;;;;10.52;7.75;;;;;;;19.87;81.36;100151.91;5130377;27;20088;-84
2023/06/04 12:07:35;;;;;;;9.88;7.18;;;;;;;20.01;80.44;100160.50;5125436;27;20454;-83
2023/06/04 12:10:21;;;;;;;11.55;7.45;;;;;;;19.92;80.49;100151.25;5125831;27;20046;-82
2023/06/04 12:13:05;;;;;;;8.95;7.20;;;;;;;19.33;79.30;100144.66;5114752;27;20050;-82
2023/06/04 12:15:53;;;;;;;10.20;7.57;;;;;;;18.84;82.03;100152.59;5116198;27;20054;-82
2023/06/04 12:18:37;;;;;;;10.40;7.75;;;;;;;19.42;81.67;100147.81;5132810;27;20087;-83
2023/06/04 12:21:26;;;;;;;9.05;7.15;;;;;;;18.94;81.07;100142.25;5132800;27;20069;-82
2023/06/04 12:24:13;;;;;;;11.40;7.43;;;;;;;19.23;80.26;100142.53;5131464;27;20112;-83
2023/06/04 12:27:04;;;;;;;9.77;6.70;;;;;;;19.28;80.94;100149.84;5131953;27;20038;-84
2023/06/04 12:29:59;;;;;;;10.85;7.00;;;;;;;19.43;82.14;100136.13;5130844;27;20434;-83
2023/06/04 12:32:45;;;;;;;10.65;6.72;;;;;;;19.57;80.91;100142.09;5131565;27;20088;-84
2023/06/04 12:35:29;;;;;;;8.75;6.40;;;;;;;20.07;79.23;100137.47;5132337;27;20507;-83
2023/06/04 12:38:13;;;;;;;9.82;6.25;;;;;;;20.18;78.48;100131.34;5133485;27;20092;-83